sensor_id;sensor_type;location;lat;lon;timestamp;pressure;altitude;pressure_sealevel;temperature;humidity
79075;BME280;68476;42.710;23.388;2023-05-07T00:01:41;95851.69;;;7.44;84.60
79075;BME280;68476;42.710;23.388;2023-05-07T00:04:07;95856.50;;;7.48;83.46
79075;BME280;68476;42.710;23.388;2023-05-07T00:06:32;95857.94;;;7.44;83.39
79075;BME280;68476;42.710;23.388;2023-05-07T00:08:58;95862.50;;;7.37;83.58
79075;BME280;68476;42.710;23.388;2023-05-07T00:11:24;95866.28;;;7.43;83.03
79075;BME280;68476;42.710;23.388;2023-05-07T00:13:50;95859.78;;;7.37;82.59
79075;BME280;68476;42.710;23.388;2023-05-07T00:16:16;95862.38;;;7.59;83.64
79075;BME280;68476;42.710;23.388;2023-05-07T00:18:41;95867.56;;;7.53;83.64
79075;BME280;68476;42.710;23.388;2023-05-07T00:21:06;95864.22;;;7.51;83.18
79075;BME280;68476;42.710;23.388;2023-05-07T00:23:32;95864.38;;;7.43;84.18
79075;BME280;68476;42.710;23.388;2023-05-07T00:25:57;95862.66;;;7.29;85.21
79075;BME280;68476;42.710;23.388;2023-05-07T00:28:23;95860.09;;;7.20;84.79
79075;BME280;68476;42.710;23.388;2023-05-07T00:30:48;95861.28;;;7.04;85.13
79075;BME280;68476;42.710;23.388;2023-05-07T00:33:13;95854.56;;;7.00;85.31
79075;BME280;68476;42.710;23.388;2023-05-07T00:35:39;95858.78;;;7.03;85.35
79075;BME280;68476;42.710;23.388;2023-05-07T00:38:04;95857.09;;;7.02;84.82
79075;BME280;68476;42.710;23.388;2023-05-07T00:40:30;95857.88;;;6.96;85.91
79075;BME280;68476;42.710;23.388;2023-05-07T00:42:55;95862.13;;;7.05;85.33
79075;BME280;68476;42.710;23.388;2023-05-07T00:45:28;95856.25;;;7.01;85.52
79075;BME280;68476;42.710;23.388;2023-05-07T00:47:59;95858.91;;;6.94;85.99
79075;BME280;68476;42.710;23.388;2023-05-07T00:50:29;95863.41;;;6.81;85.90
79075;BME280;68476;42.710;23.388;2023-05-07T00:52:55;95867.31;;;6.71;86.60
79075;BME280;68476;42.710;23.388;2023-05-07T00:55:21;95879.50;;;6.89;85.83
79075;BME280;68476;42.710;23.388;2023-05-07T00:57:47;95874.50;;;6.86;85.57
79075;BME280;68476;42.710;23.388;2023-05-07T01:00:13;95877.41;;;6.84;85.93
79075;BME280;68476;42.710;23.388;2023-05-07T01:02:39;95872.63;;;6.86;85.49
79075;BME280;68476;42.710;23.388;2023-05-07T01:05:06;95874.50;;;6.86;85.49
79075;BME280;68476;42.710;23.388;2023-05-07T01:07:33;95871.22;;;6.90;85.59
79075;BME280;68476;42.710;23.388;2023-05-07T01:10:00;95872.41;;;6.81;85.10
79075;BME280;68476;42.710;23.388;2023-05-07T01:12:28;95877.25;;;6.92;84.67
79075;BME280;68476;42.710;23.388;2023-05-07T01:14:55;95870.22;;;6.98;84.67
79075;BME280;68476;42.710;23.388;2023-05-07T01:17:20;95876.47;;;6.99;84.67
79075;BME280;68476;42.710;23.388;2023-05-07T01:19:46;95869.28;;;6.84;85.15
79075;BME280;68476;42.710;23.388;2023-05-07T01:22:13;95862.81;;;6.85;85.24
79075;BME280;68476;42.710;23.388;2023-05-07T01:24:41;95868.88;;;6.87;84.71
79075;BME280;68476;42.710;23.388;2023-05-07T01:27:07;95878.25;;;6.85;85.35
79075;BME280;68476;42.710;23.388;2023-05-07T01:29:32;95866.81;;;6.89;84.68
79075;BME280;68476;42.710;23.388;2023-05-07T01:31:59;95869.75;;;6.94;84.44
79075;BME280;68476;42.710;23.388;2023-05-07T01:34:27;95863.72;;;6.92;84.23
79075;BME280;68476;42.710;23.388;2023-05-07T01:36:54;95868.63;;;6.82;84.80
79075;BME280;68476;42.710;23.388;2023-05-07T01:39:23;95869.47;;;6.83;84.39
79075;BME280;68476;42.710;23.388;2023-05-07T01:41:49;95870.47;;;6.75;84.81
79075;BME280;68476;42.710;23.388;2023-05-07T01:44:16;95855.56;;;6.57;85.74
79075;BME280;68476;42.710;23.388;2023-05-07T01:46:42;95862.88;;;6.63;84.96
79075;BME280;68476;42.710;23.388;2023-05-07T01:49:07;95862.13;;;6.48;85.92
79075;BME280;68476;42.710;23.388;2023-05-07T01:51:33;95859.06;;;6.29;86.76
79075;BME280;68476;42.710;23.388;2023-05-07T01:53:59;95856.38;;;6.29;86.64
79075;BME280;68476;42.710;23.388;2023-05-07T01:56:25;95858.94;;;6.16;86.67
79075;BME280;68476;42.710;23.388;2023-05-07T01:58:51;95849.53;;;6.12;87.33
79075;BME280;68476;42.710;23.388;2023-05-07T02:01:17;95848.91;;;6.10;86.69
79075;BME280;68476;42.710;23.388;2023-05-07T02:03:43;95854.31;;;6.10;87.54
79075;BME280;68476;42.710;23.388;2023-05-07T02:06:08;95845.03;;;6.19;86.82
79075;BME280;68476;42.710;23.388;2023-05-07T02:08:34;95844.25;;;6.04;87.61
79075;BME280;68476;42.710;23.388;2023-05-07T02:10:59;95832.19;;;5.99;87.48
79075;BME280;68476;42.710;23.388;2023-05-07T02:13:28;95832.63;;;6.03;87.25
79075;BME280;68476;42.710;23.388;2023-05-07T02:15:53;95833.50;;;6.10;87.44
79075;BME280;68476;42.710;23.388;2023-05-07T02:18:19;95833.19;;;6.20;87.31
79075;BME280;68476;42.710;23.388;2023-05-07T02:20:44;95825.66;;;6.15;86.64
79075;BME280;68476;42.710;23.388;2023-05-07T02:23:10;95827.41;;;6.30;87.00
79075;BME280;68476;42.710;23.388;2023-05-07T02:25:35;95831.34;;;6.27;86.95
79075;BME280;68476;42.710;23.388;2023-05-07T02:28:00;95828.50;;;6.36;87.12
79075;BME280;68476;42.710;23.388;2023-05-07T02:30:26;95835.81;;;6.35;86.94
79075;BME280;68476;42.710;23.388;2023-05-07T02:32:51;95834.03;;;6.49;86.95
79075;BME280;68476;42.710;23.388;2023-05-07T02:35:17;95827.97;;;6.47;86.84
79075;BME280;68476;42.710;23.388;2023-05-07T02:37:42;95821.78;;;6.53;86.69
79075;BME280;68476;42.710;23.388;2023-05-07T02:40:08;95827.19;;;6.53;86.90
79075;BME280;68476;42.710;23.388;2023-05-07T02:42:34;95823.88;;;6.58;86.93
79075;BME280;68476;42.710;23.388;2023-05-07T02:44:59;95822.66;;;6.60;87.19
79075;BME280;68476;42.710;23.388;2023-05-07T02:47:25;95826.00;;;6.62;86.82
79075;BME280;68476;42.710;23.388;2023-05-07T02:49:53;95826.81;;;6.56;87.14
79075;BME280;68476;42.710;23.388;2023-05-07T02:52:19;95828.63;;;6.49;87.49
79075;BME280;68476;42.710;23.388;2023-05-07T02:54:44;95823.47;;;6.54;87.09
79075;BME280;68476;42.710;23.388;2023-05-07T02:57:10;95824.75;;;6.58;87.63
79075;BME280;68476;42.710;23.388;2023-05-07T02:59:35;95832.81;;;6.52;87.94
79075;BME280;68476;42.710;23.388;2023-05-07T03:02:00;95837.16;;;6.53;88.30
79075;BME280;68476;42.710;23.388;2023-05-07T03:04:26;95825.72;;;6.51;88.29
79075;BME280;68476;42.710;23.388;2023-05-07T03:06:51;95841.44;;;6.62;88.11
79075;BME280;68476;42.710;23.388;2023-05-07T03:09:16;95833.47;;;6.60;87.58
79075;BME280;68476;42.710;23.388;2023-05-07T03:11:42;95840.53;;;6.55;88.15
79075;BME280;68476;42.710;23.388;2023-05-07T03:14:07;95850.91;;;6.51;88.85
79075;BME280;68476;42.710;23.388;2023-05-07T03:16:33;95839.69;;;6.54;88.54
79075;BME280;68476;42.710;23.388;2023-05-07T03:18:58;95845.75;;;6.56;88.75
79075;BME280;68476;42.710;23.388;2023-05-07T03:21:24;95847.44;;;6.57;88.56
79075;BME280;68476;42.710;23.388;2023-05-07T03:23:50;95846.47;;;6.72;89.32
79075;BME280;68476;42.710;23.388;2023-05-07T03:26:16;95848.03;;;6.81;88.67
79075;BME280;68476;42.710;23.388;2023-05-07T03:28:41;95849.72;;;6.89;89.05
79075;BME280;68476;42.710;23.388;2023-05-07T03:31:06;95846.59;;;6.92;88.43
79075;BME280;68476;42.710;23.388;2023-05-07T03:33:35;95853.28;;;6.89;88.22
79075;BME280;68476;42.710;23.388;2023-05-07T03:36:04;95845.75;;;6.85;87.94
79075;BME280;68476;42.710;23.388;2023-05-07T03:38:29;95849.28;;;6.85;88.54
79075;BME280;68476;42.710;23.388;2023-05-07T03:40:55;95852.25;;;6.90;88.68
79075;BME280;68476;42.710;23.388;2023-05-07T03:43:20;95857.28;;;7.00;87.78
79075;BME280;68476;42.710;23.388;2023-05-07T03:45:45;95852.97;;;7.13;88.17
79075;BME280;68476;42.710;23.388;2023-05-07T03:48:11;95866.84;;;7.31;88.65
79075;BME280;68476;42.710;23.388;2023-05-07T03:50:37;95862.94;;;7.47;87.53
79075;BME280;68476;42.710;23.388;2023-05-07T03:53:03;95861.03;;;7.41;87.46
79075;BME280;68476;42.710;23.388;2023-05-07T03:55:28;95858.69;;;7.24;86.47
79075;BME280;68476;42.710;23.388;2023-05-07T03:57:54;95871.38;;;7.17;86.95
79075;BME280;68476;42.710;23.388;2023-05-07T04:00:19;95875.97;;;7.23;87.26
79075;BME280;68476;42.710;23.388;2023-05-07T04:02:46;95878.94;;;7.35;86.49
79075;BME280;68476;42.710;23.388;2023-05-07T04:05:12;95879.22;;;7.47;85.57
79075;BME280;68476;42.710;23.388;2023-05-07T04:07:38;95878.63;;;7.52;85.53
79075;BME280;68476;42.710;23.388;2023-05-07T04:10:04;95889.09;;;7.62;85.09
79075;BME280;68476;42.710;23.388;2023-05-07T04:12:29;95883.47;;;7.70;84.32
79075;BME280;68476;42.710;23.388;2023-05-07T04:14:55;95881.19;;;7.74;84.45
79075;BME280;68476;42.710;23.388;2023-05-07T04:17:20;95900.81;;;7.69;84.59
79075;BME280;68476;42.710;23.388;2023-05-07T04:19:46;95898.31;;;7.74;85.11
79075;BME280;68476;42.710;23.388;2023-05-07T04:22:11;95907.06;;;7.76;83.54
79075;BME280;68476;42.710;23.388;2023-05-07T04:24:37;95902.47;;;7.70;83.42
79075;BME280;68476;42.710;23.388;2023-05-07T04:27:02;95906.06;;;7.84;83.73
79075;BME280;68476;42.710;23.388;2023-05-07T04:29:28;95901.88;;;7.75;83.45
79075;BME280;68476;42.710;23.388;2023-05-07T04:31:53;95909.84;;;7.90;82.93
79075;BME280;68476;42.710;23.388;2023-05-07T04:34:20;95912.81;;;8.01;82.77
79075;BME280;68476;42.710;23.388;2023-05-07T04:36:46;95910.31;;;8.13;82.10
79075;BME280;68476;42.710;23.388;2023-05-07T04:39:11;95919.69;;;8.04;82.12
79075;BME280;68476;42.710;23.388;2023-05-07T04:41:37;95915.16;;;8.11;81.92
79075;BME280;68476;42.710;23.388;2023-05-07T04:44:02;95924.13;;;8.18;81.78
79075;BME280;68476;42.710;23.388;2023-05-07T04:46:29;95919.34;;;8.21;81.93
79075;BME280;68476;42.710;23.388;2023-05-07T04:48:54;95919.34;;;8.27;81.83
79075;BME280;68476;42.710;23.388;2023-05-07T04:51:20;95901.38;;;8.26;80.97
79075;BME280;68476;42.710;23.388;2023-05-07T04:53:45;95916.88;;;8.46;80.90
79075;BME280;68476;42.710;23.388;2023-05-07T04:56:10;95915.66;;;8.62;80.79
79075;BME280;68476;42.710;23.388;2023-05-07T04:58:36;95924.03;;;8.74;80.74
79075;BME280;68476;42.710;23.388;2023-05-07T05:01:01;95922.34;;;9.00;79.56
79075;BME280;68476;42.710;23.388;2023-05-07T05:03:27;95915.66;;;9.02;79.57
79075;BME280;68476;42.710;23.388;2023-05-07T05:05:52;95904.53;;;9.17;79.30
79075;BME280;68476;42.710;23.388;2023-05-07T05:08:18;95904.31;;;9.32;78.88
79075;BME280;68476;42.710;23.388;2023-05-07T05:10:43;95914.50;;;9.50;77.92
79075;BME280;68476;42.710;23.388;2023-05-07T05:13:09;95907.13;;;9.64;77.90
79075;BME280;68476;42.710;23.388;2023-05-07T05:15:38;95906.50;;;9.76;76.92
79075;BME280;68476;42.710;23.388;2023-05-07T05:18:03;95907.03;;;9.91;76.58
79075;BME280;68476;42.710;23.388;2023-05-07T05:20:28;95888.94;;;10.10;75.53
79075;BME280;68476;42.710;23.388;2023-05-07T05:22:54;95908.50;;;10.32;75.29
79075;BME280;68476;42.710;23.388;2023-05-07T05:25:19;95913.09;;;10.39;75.33
79075;BME280;68476;42.710;23.388;2023-05-07T05:27:44;95903.88;;;10.40;74.32
79075;BME280;68476;42.710;23.388;2023-05-07T05:30:10;95910.91;;;10.54;74.02
79075;BME280;68476;42.710;23.388;2023-05-07T05:32:36;95921.38;;;10.83;73.25
79075;BME280;68476;42.710;23.388;2023-05-07T05:35:01;95913.34;;;10.88;73.43
79075;BME280;68476;42.710;23.388;2023-05-07T05:37:27;95915.97;;;11.01;74.28
79075;BME280;68476;42.710;23.388;2023-05-07T05:39:52;95904.44;;;11.24;73.30
79075;BME280;68476;42.710;23.388;2023-05-07T05:42:19;95901.28;;;11.46;73.13
79075;BME280;68476;42.710;23.388;2023-05-07T05:44:45;95911.31;;;11.52;72.28
79075;BME280;68476;42.710;23.388;2023-05-07T05:47:10;95912.66;;;11.80;72.71
79075;BME280;68476;42.710;23.388;2023-05-07T05:49:36;95914.50;;;11.86;71.07
79075;BME280;68476;42.710;23.388;2023-05-07T05:52:01;95904.38;;;12.06;71.49
79075;BME280;68476;42.710;23.388;2023-05-07T05:54:26;95915.22;;;11.94;72.42
79075;BME280;68476;42.710;23.388;2023-05-07T05:56:52;95906.28;;;12.05;71.52
79075;BME280;68476;42.710;23.388;2023-05-07T05:59:17;95906.59;;;11.97;71.98
79075;BME280;68476;42.710;23.388;2023-05-07T06:01:43;95907.97;;;12.06;71.94
79075;BME280;68476;42.710;23.388;2023-05-07T06:04:08;95916.69;;;12.15;71.85
79075;BME280;68476;42.710;23.388;2023-05-07T06:06:33;95916.03;;;12.31;71.33
79075;BME280;68476;42.710;23.388;2023-05-07T06:08:59;95915.50;;;12.53;70.68
79075;BME280;68476;42.710;23.388;2023-05-07T06:11:24;95913.72;;;12.59;70.29
79075;BME280;68476;42.710;23.388;2023-05-07T06:13:50;95909.88;;;12.78;69.35
79075;BME280;68476;42.710;23.388;2023-05-07T06:16:15;95909.38;;;12.58;70.19
79075;BME280;68476;42.710;23.388;2023-05-07T06:18:41;95899.19;;;12.89;69.74
79075;BME280;68476;42.710;23.388;2023-05-07T06:21:06;95902.78;;;13.13;68.73
79075;BME280;68476;42.710;23.388;2023-05-07T06:23:32;95905.41;;;13.08;68.66
79075;BME280;68476;42.710;23.388;2023-05-07T06:25:57;95897.44;;;13.54;67.37
79075;BME280;68476;42.710;23.388;2023-05-07T06:28:22;95903.88;;;13.48;67.00
79075;BME280;68476;42.710;23.388;2023-05-07T06:30:49;95902.78;;;13.13;68.94
79075;BME280;68476;42.710;23.388;2023-05-07T06:33:15;95898.88;;;13.45;67.14
79075;BME280;68476;42.710;23.388;2023-05-07T06:35:41;95893.53;;;13.50;67.81
79075;BME280;68476;42.710;23.388;2023-05-07T06:38:06;95882.91;;;13.65;67.18
79075;BME280;68476;42.710;23.388;2023-05-07T06:40:32;95881.16;;;14.00;66.61
79075;BME280;68476;42.710;23.388;2023-05-07T06:42:57;95879.53;;;13.87;66.28
79075;BME280;68476;42.710;23.388;2023-05-07T06:45:22;95874.47;;;13.67;67.83
79075;BME280;68476;42.710;23.388;2023-05-07T06:47:48;95875.50;;;14.47;65.28
79075;BME280;68476;42.710;23.388;2023-05-07T06:50:14;95865.97;;;14.21;66.04
79075;BME280;68476;42.710;23.388;2023-05-07T06:52:41;95867.38;;;14.24;65.17
79075;BME280;68476;42.710;23.388;2023-05-07T06:55:07;95864.09;;;14.56;63.20
79075;BME280;68476;42.710;23.388;2023-05-07T06:57:32;95868.50;;;14.40;63.10
79075;BME280;68476;42.710;23.388;2023-05-07T06:59:58;95867.25;;;14.47;63.26
79075;BME280;68476;42.710;23.388;2023-05-07T07:02:23;95865.16;;;14.38;64.31
79075;BME280;68476;42.710;23.388;2023-05-07T07:04:49;95863.94;;;14.62;64.09
79075;BME280;68476;42.710;23.388;2023-05-07T07:07:14;95863.69;;;14.93;63.44
79075;BME280;68476;42.710;23.388;2023-05-07T07:09:39;95868.91;;;15.12;62.67
79075;BME280;68476;42.710;23.388;2023-05-07T07:12:05;95865.09;;;14.95;62.62
79075;BME280;68476;42.710;23.388;2023-05-07T07:14:30;95862.59;;;15.11;62.84
79075;BME280;68476;42.710;23.388;2023-05-07T07:16:56;95863.09;;;14.91;63.22
79075;BME280;68476;42.710;23.388;2023-05-07T07:19:21;95853.47;;;14.59;64.36
79075;BME280;68476;42.710;23.388;2023-05-07T07:21:46;95859.19;;;14.87;63.87
79075;BME280;68476;42.710;23.388;2023-05-07T07:24:13;95850.25;;;15.70;61.00
79075;BME280;68476;42.710;23.388;2023-05-07T07:26:38;95854.44;;;15.55;60.72
79075;BME280;68476;42.710;23.388;2023-05-07T07:29:05;95852.41;;;15.68;59.99
79075;BME280;68476;42.710;23.388;2023-05-07T07:31:30;95846.47;;;15.76;59.76
79075;BME280;68476;42.710;23.388;2023-05-07T07:33:56;95848.72;;;15.79;59.59
79075;BME280;68476;42.710;23.388;2023-05-07T07:36:21;95850.97;;;15.43;60.18
79075;BME280;68476;42.710;23.388;2023-05-07T07:38:47;95846.78;;;15.57;59.62
79075;BME280;68476;42.710;23.388;2023-05-07T07:41:12;95843.34;;;15.67;59.53
79075;BME280;68476;42.710;23.388;2023-05-07T07:43:37;95858.88;;;16.01;59.83
79075;BME280;68476;42.710;23.388;2023-05-07T07:46:03;95856.47;;;16.05;58.50
79075;BME280;68476;42.710;23.388;2023-05-07T07:48:28;95858.22;;;16.38;57.43
79075;BME280;68476;42.710;23.388;2023-05-07T07:50:54;95856.94;;;16.24;56.97
79075;BME280;68476;42.710;23.388;2023-05-07T07:53:19;95856.81;;;16.63;56.60
79075;BME280;68476;42.710;23.388;2023-05-07T07:55:45;95856.47;;;16.87;55.49
79075;BME280;68476;42.710;23.388;2023-05-07T07:58:10;95867.66;;;16.47;56.01
79075;BME280;68476;42.710;23.388;2023-05-07T08:00:36;95854.84;;;16.31;54.39
79075;BME280;68476;42.710;23.388;2023-05-07T08:03:02;95847.59;;;16.47;54.58
79075;BME280;68476;42.710;23.388;2023-05-07T08:05:28;95851.16;;;16.47;54.41
79075;BME280;68476;42.710;23.388;2023-05-07T08:07:53;95848.31;;;16.97;52.86
79075;BME280;68476;42.710;23.388;2023-05-07T08:10:19;95846.06;;;16.61;54.20
79075;BME280;68476;42.710;23.388;2023-05-07T08:12:50;95849.03;;;16.55;53.43
79075;BME280;68476;42.710;23.388;2023-05-07T08:15:16;95848.94;;;16.44;53.92
79075;BME280;68476;42.710;23.388;2023-05-07T08:17:42;95846.19;;;17.04;52.70
79075;BME280;68476;42.710;23.388;2023-05-07T08:20:08;95845.50;;;17.24;51.18
79075;BME280;68476;42.710;23.388;2023-05-07T08:22:34;95843.38;;;17.37;51.50
79075;BME280;68476;42.710;23.388;2023-05-07T08:25:00;95841.84;;;17.14;51.13
79075;BME280;68476;42.710;23.388;2023-05-07T08:27:25;95837.38;;;17.02;51.26
79075;BME280;68476;42.710;23.388;2023-05-07T08:29:51;95829.34;;;17.38;50.41
79075;BME280;68476;42.710;23.388;2023-05-07T08:32:16;95833.59;;;17.62;49.67
79075;BME280;68476;42.710;23.388;2023-05-07T08:34:42;95821.78;;;17.66;49.73
79075;BME280;68476;42.710;23.388;2023-05-07T08:37:07;95820.59;;;18.05;49.00
79075;BME280;68476;42.710;23.388;2023-05-07T08:39:32;95823.03;;;17.96;48.69
79075;BME280;68476;42.710;23.388;2023-05-07T08:42:00;95819.66;;;17.84;47.78
79075;BME280;68476;42.710;23.388;2023-05-07T08:44:28;95818.72;;;18.21;47.23
79075;BME280;68476;42.710;23.388;2023-05-07T08:46:56;95812.72;;;18.45;45.57
79075;BME280;68476;42.710;23.388;2023-05-07T08:49:21;95813.56;;;18.87;45.45
79075;BME280;68476;42.710;23.388;2023-05-07T08:51:47;95814.16;;;18.94;45.48
79075;BME280;68476;42.710;23.388;2023-05-07T08:54:15;95812.19;;;19.10;43.10
79075;BME280;68476;42.710;23.388;2023-05-07T08:56:41;95814.69;;;19.01;43.44
79075;BME280;68476;42.710;23.388;2023-05-07T08:59:06;95812.72;;;18.45;44.51
79075;BME280;68476;42.710;23.388;2023-05-07T09:01:32;95802.81;;;19.11;42.33
79075;BME280;68476;42.710;23.388;2023-05-07T09:03:58;95796.13;;;19.43;41.79
79075;BME280;68476;42.710;23.388;2023-05-07T09:06:23;95796.31;;;19.73;41.80
79075;BME280;68476;42.710;23.388;2023-05-07T09:08:53;95796.13;;;19.43;42.14
79075;BME280;68476;42.710;23.388;2023-05-07T09:11:22;95793.09;;;19.24;42.77
79075;BME280;68476;42.710;23.388;2023-05-07T09:13:55;95785.78;;;19.75;39.41
79075;BME280;68476;42.710;23.388;2023-05-07T09:16:27;95782.72;;;19.81;40.49
79075;BME280;68476;42.710;23.388;2023-05-07T09:18:54;95784.25;;;20.13;39.94
79075;BME280;68476;42.710;23.388;2023-05-07T09:21:20;95773.94;;;20.69;37.97
79075;BME280;68476;42.710;23.388;2023-05-07T09:23:48;95777.00;;;20.23;37.46
79075;BME280;68476;42.710;23.388;2023-05-07T09:26:14;95772.97;;;20.50;35.33
79075;BME280;68476;42.710;23.388;2023-05-07T09:28:41;95775.38;;;20.22;34.87
79075;BME280;68476;42.710;23.388;2023-05-07T09:31:10;95763.47;;;20.61;35.61
79075;BME280;68476;42.710;23.388;2023-05-07T09:33:36;95767.72;;;20.48;36.27
79075;BME280;68476;42.710;23.388;2023-05-07T09:36:06;95773.22;;;20.93;35.05
79075;BME280;68476;42.710;23.388;2023-05-07T09:38:36;95763.38;;;20.71;35.90
79075;BME280;68476;42.710;23.388;2023-05-07T09:41:07;95759.59;;;20.17;37.91
79075;BME280;68476;42.710;23.388;2023-05-07T09:43:34;95754.13;;;20.07;38.59
79075;BME280;68476;42.710;23.388;2023-05-07T09:46:07;95757.38;;;20.99;37.18
79075;BME280;68476;42.710;23.388;2023-05-07T09:48:38;95753.00;;;21.46;36.52
79075;BME280;68476;42.710;23.388;2023-05-07T09:51:14;95739.53;;;21.39;35.64
79075;BME280;68476;42.710;23.388;2023-05-07T09:53:40;95745.09;;;21.10;33.83
79075;BME280;68476;42.710;23.388;2023-05-07T09:56:07;95741.09;;;21.94;34.45
79075;BME280;68476;42.710;23.388;2023-05-07T09:58:36;95739.13;;;21.95;34.56
79075;BME280;68476;42.710;23.388;2023-05-07T10:01:02;95735.22;;;21.77;33.15
79075;BME280;68476;42.710;23.388;2023-05-07T10:03:29;95732.84;;;21.89;32.88
79075;BME280;68476;42.710;23.388;2023-05-07T10:05:58;95732.91;;;21.60;32.57
79075;BME280;68476;42.710;23.388;2023-05-07T10:08:24;95723.59;;;21.94;32.21
79075;BME280;68476;42.710;23.388;2023-05-07T10:10:50;95732.53;;;22.86;31.68
79075;BME280;68476;42.710;23.388;2023-05-07T10:13:17;95723.13;;;23.15;30.80
79075;BME280;68476;42.710;23.388;2023-05-07T10:15:44;95729.00;;;22.81;31.76
79075;BME280;68476;42.710;23.388;2023-05-07T10:18:11;95720.09;;;22.26;31.92
79075;BME280;68476;42.710;23.388;2023-05-07T10:20:37;95720.84;;;22.13;31.36
79075;BME280;68476;42.710;23.388;2023-05-07T10:23:05;95718.59;;;22.15;32.05
79075;BME280;68476;42.710;23.388;2023-05-07T10:25:32;95708.97;;;25.68;27.10
79075;BME280;68476;42.710;23.388;2023-05-07T10:28:02;95702.19;;;28.53;22.52
79075;BME280;68476;42.710;23.388;2023-05-07T10:30:37;95700.38;;;28.90;23.47
79075;BME280;68476;42.710;23.388;2023-05-07T10:33:04;95703.47;;;28.13;19.98
79075;BME280;68476;42.710;23.388;2023-05-07T10:35:38;95692.94;;;27.32;22.39
79075;BME280;68476;42.710;23.388;2023-05-07T10:38:06;95686.09;;;29.75;19.17
79075;BME280;68476;42.710;23.388;2023-05-07T10:40:31;95686.31;;;31.01;18.41
79075;BME280;68476;42.710;23.388;2023-05-07T10:42:59;95683.84;;;31.12;18.31
79075;BME280;68476;42.710;23.388;2023-05-07T10:45:26;95685.97;;;29.59;18.87
79075;BME280;68476;42.710;23.388;2023-05-07T10:48:11;95690.09;;;30.65;19.27
79075;BME280;68476;42.710;23.388;2023-05-07T10:50:38;95684.56;;;29.07;20.19
79075;BME280;68476;42.710;23.388;2023-05-07T10:55:41;95671.06;;;31.02;18.05
79075;BME280;68476;42.710;23.388;2023-05-07T10:58:29;95672.72;;;30.75;18.19
79075;BME280;68476;42.710;23.388;2023-05-07T11:01:01;95668.75;;;32.52;17.18
79075;BME280;68476;42.710;23.388;2023-05-07T11:03:27;95673.38;;;33.19;16.30
79075;BME280;68476;42.710;23.388;2023-05-07T11:06:09;95668.25;;;33.48;15.96
79075;BME280;68476;42.710;23.388;2023-05-07T11:09:02;95672.69;;;31.32;17.54
79075;BME280;68476;42.710;23.388;2023-05-07T11:11:49;95670.97;;;30.99;18.26
79075;BME280;68476;42.710;23.388;2023-05-07T11:14:49;95661.31;;;30.43;18.98
79075;BME280;68476;42.710;23.388;2023-05-07T11:17:16;95658.03;;;30.53;18.88
79075;BME280;68476;42.710;23.388;2023-05-07T11:19:53;95661.78;;;32.10;16.95
79075;BME280;68476;42.710;23.388;2023-05-07T11:22:38;95659.41;;;33.73;15.14
79075;BME280;68476;42.710;23.388;2023-05-07T11:25:07;95664.34;;;33.33;15.92
79075;BME280;68476;42.710;23.388;2023-05-07T11:27:32;95653.19;;;30.66;17.60
79075;BME280;68476;42.710;23.388;2023-05-07T11:29:58;95656.09;;;31.27;17.54
79075;BME280;68476;42.710;23.388;2023-05-07T11:32:26;95649.84;;;32.72;15.69
79075;BME280;68476;42.710;23.388;2023-05-07T11:34:56;95651.38;;;31.79;16.82
79075;BME280;68476;42.710;23.388;2023-05-07T11:37:22;95649.28;;;31.28;17.83
79075;BME280;68476;42.710;23.388;2023-05-07T11:39:48;95642.38;;;31.57;17.33
79075;BME280;68476;42.710;23.388;2023-05-07T11:42:30;95645.81;;;34.06;14.52
79075;BME280;68476;42.710;23.388;2023-05-07T11:44:56;95640.28;;;32.22;16.03
79075;BME280;68476;42.710;23.388;2023-05-07T11:47:22;95640.00;;;31.43;14.73
79075;BME280;68476;42.710;23.388;2023-05-07T11:49:48;95640.72;;;32.40;14.42
79075;BME280;68476;42.710;23.388;2023-05-07T11:52:15;95630.81;;;33.09;13.51
79075;BME280;68476;42.710;23.388;2023-05-07T11:54:40;95638.38;;;32.26;14.04
79075;BME280;68476;42.710;23.388;2023-05-07T11:57:06;95636.69;;;30.52;15.33
79075;BME280;68476;42.710;23.388;2023-05-07T11:59:42;95632.56;;;30.34;15.50
79075;BME280;68476;42.710;23.388;2023-05-07T12:02:09;95633.41;;;32.03;13.61
79075;BME280;68476;42.710;23.388;2023-05-07T12:04:35;95632.66;;;33.21;12.41
79075;BME280;68476;42.710;23.388;2023-05-07T12:07:00;95624.97;;;32.58;13.12
79075;BME280;68476;42.710;23.388;2023-05-07T12:09:26;95628.13;;;34.09;11.62
79075;BME280;68476;42.710;23.388;2023-05-07T12:11:52;95620.16;;;33.91;12.49
79075;BME280;68476;42.710;23.388;2023-05-07T12:14:17;95613.75;;;31.23;14.99
79075;BME280;68476;42.710;23.388;2023-05-07T12:16:44;95613.63;;;33.87;13.74
79075;BME280;68476;42.710;23.388;2023-05-07T12:19:10;95607.25;;;35.20;12.41
79075;BME280;68476;42.710;23.388;2023-05-07T12:21:38;95607.09;;;32.90;13.22
79075;BME280;68476;42.710;23.388;2023-05-07T12:24:04;95594.28;;;34.16;12.10
79075;BME280;68476;42.710;23.388;2023-05-07T12:26:30;95604.72;;;31.97;13.30
79075;BME280;68476;42.710;23.388;2023-05-07T12:28:57;95601.13;;;35.10;11.07
79075;BME280;68476;42.710;23.388;2023-05-07T12:31:23;95592.97;;;35.05;11.30
79075;BME280;68476;42.710;23.388;2023-05-07T12:33:50;95600.34;;;31.32;13.99
79075;BME280;68476;42.710;23.388;2023-05-07T12:36:15;95590.13;;;32.11;13.50
79075;BME280;68476;42.710;23.388;2023-05-07T12:38:41;95588.84;;;30.93;14.28
79075;BME280;68476;42.710;23.388;2023-05-07T12:41:08;95587.78;;;31.14;14.27
79075;BME280;68476;42.710;23.388;2023-05-07T12:43:35;95583.63;;;32.47;12.94
79075;BME280;68476;42.710;23.388;2023-05-07T12:46:04;95578.59;;;34.22;11.64
79075;BME280;68476;42.710;23.388;2023-05-07T12:48:30;95574.50;;;33.62;11.80
79075;BME280;68476;42.710;23.388;2023-05-07T12:50:57;95565.84;;;34.05;12.43
79075;BME280;68476;42.710;23.388;2023-05-07T12:53:25;95571.44;;;34.02;12.71
79075;BME280;68476;42.710;23.388;2023-05-07T12:55:53;95569.53;;;31.24;13.97